Time;durP1;ratioP1;P1;durP2;ratioP2;P2;SDS_P1;SDS_P2;PMS_P1;PMS_P2;Temp;Humidity;BMP_temperature;BMP_pressure;BME280_temperature;BME280_humidity;BME280_pressure;Samples;Min_cycle;Max_cycle;Signal;HPM_P1;HPM_P2
2022/10/27 00:02:21;;;;;;;6.18;2.60;;;;;;;15.64;56.19;100963.00;5069513;28;20032;-31
2022/10/27 00:04:47;;;;;;;7.63;2.65;;;;;;;15.69;55.71;100957.72;5087924;28;20473;-28
2022/10/27 00:07:12;;;;;;;6.55;2.80;;;;;;;15.83;55.89;100953.84;5087911;28;20020;-26
2022/10/27 00:09:37;;;;;;;5.80;2.78;;;;;;;15.74;55.33;100949.00;5088211;28;20557;-27
2022/10/27 00:12:03;;;;;;;6.05;3.05;;;;;;;15.67;55.15;100960.66;5087715;28;20030;-25
2022/10/27 00:14:29;;;;;;;8.07;3.35;;;;;;;15.56;55.54;100968.69;5087718;28;20614;-27
2022/10/27 00:16:55;;;;;;;8.90;3.58;;;;;;;15.51;56.15;100955.94;5087760;28;20103;-29
2022/10/27 00:19:23;;;;;;;7.70;3.30;;;;;;;15.22;56.83;100945.00;5087252;28;20032;-26
2022/10/27 00:21:50;;;;;;;6.03;3.03;;;;;;;15.07;58.06;100966.88;5087533;28;20032;-30
2022/10/27 00:24:17;;;;;;;8.30;3.33;;;;;;;15.27;57.09;100955.06;5069002;28;20423;-26
2022/10/27 00:26:42;;;;;;;8.98;3.40;;;;;;;15.14;57.49;100956.06;5087616;28;20089;-26
2022/10/27 00:29:08;;;;;;;6.78;3.42;;;;;;;15.23;57.19;100973.50;5087756;28;20027;-28
2022/10/27 00:31:33;;;;;;;7.97;3.28;;;;;;;15.22;56.90;100955.75;5087734;28;20024;-29
2022/10/27 00:33:59;;;;;;;7.40;3.70;;;;;;;15.43;56.40;100975.09;5069083;28;20559;-29
2022/10/27 00:36:25;;;;;;;5.65;3.60;;;;;;;15.36;56.61;100975.16;5087797;28;20059;-28
2022/10/27 00:38:58;;;;;;;6.32;3.47;;;;;;;15.38;57.06;100956.13;5087302;28;20469;-27
2022/10/27 00:41:30;;;;;;;10.23;3.83;;;;;;;15.49;56.73;100976.88;5087277;28;20024;-27
2022/10/27 00:43:58;;;;;;;6.93;3.85;;;;;;;15.36;56.74;100982.41;5087483;28;20092;-25
2022/10/27 00:46:27;;;;;;;7.95;3.63;;;;;;;15.29;56.83;100981.69;5087270;28;20043;-25
2022/10/27 00:48:56;;;;;;;7.95;4.07;;;;;;;15.31;57.00;100958.09;5087250;28;20028;-27
2022/10/27 00:51:22;;;;;;;8.77;4.70;;;;;;;15.11;57.54;100969.94;5087471;28;20097;-26
2022/10/27 00:53:48;;;;;;;8.85;5.13;;;;;;;15.30;56.64;100962.63;5086842;28;20035;-25
2022/10/27 00:56:15;;;;;;;7.75;4.20;;;;;;;15.30;56.76;100965.31;5087568;28;20028;-27
2022/10/27 00:58:44;;;;;;;8.07;4.72;;;;;;;15.08;57.85;100973.09;5087306;28;20039;-25
2022/10/27 01:01:09;;;;;;;8.40;4.00;;;;;;;14.90;59.00;100976.59;5087378;28;20750;-25
2022/10/27 01:03:35;;;;;;;8.15;4.30;;;;;;;14.81;59.90;100977.94;5087104;28;20028;-26
2022/10/27 01:06:01;;;;;;;7.45;4.07;;;;;;;14.72;59.90;100958.63;5086723;28;20052;-26
2022/10/27 01:08:27;;;;;;;8.85;4.53;;;;;;;15.03;58.82;100957.63;5086459;28;20102;-26
2022/10/27 01:10:53;;;;;;;11.38;5.13;;;;;;;15.16;58.77;100975.47;5087352;28;20062;-26
2022/10/27 01:13:19;;;;;;;7.95;4.18;;;;;;;15.05;58.85;100984.28;5087214;28;20052;-25
2022/10/27 01:15:59;;;;;;;9.00;4.05;;;;;;;15.01;58.68;100988.44;5086815;28;20036;-26
2022/10/27 01:18:46;;;;;;;10.43;5.15;;;;;;;14.99;58.60;100979.81;5085397;28;20116;-27
2022/10/27 01:21:37;;;;;;;14.43;4.83;;;;;;;15.05;58.57;100978.91;5087079;28;20104;-26
2022/10/27 01:24:34;;;;;;;10.65;4.90;;;;;;;15.18;58.09;100980.59;5086886;28;20476;-24
2022/10/27 01:27:44;;;;;;;9.50;4.93;;;;;;;14.81;60.16;100978.78;5041171;28;20032;-26
2022/10/27 01:30:22;;;;;;;10.02;4.63;;;;;;;14.77;60.03;100991.03;5067487;28;20043;-25
2022/10/27 01:33:10;;;;;;;10.85;5.03;;;;;;;14.85;59.85;100996.09;5091280;28;20109;-25
2022/10/27 01:36:01;;;;;;;10.40;5.07;;;;;;;14.72;60.10;100982.00;5090642;28;20044;-26
2022/10/27 01:38:30;;;;;;;7.07;4.07;;;;;;;14.26;61.27;100970.63;5090284;28;20022;-26
2022/10/27 01:41:10;;;;;;;10.80;5.35;;;;;;;14.16;62.14;100976.53;5090611;28;20046;-28
2022/10/27 01:43:36;;;;;;;9.30;4.80;;;;;;;14.07;62.76;100986.69;5072306;28;20542;-26
2022/10/27 01:46:05;;;;;;;10.93;4.85;;;;;;;14.38;62.24;101001.06;5090194;28;20035;-27
2022/10/27 01:48:35;;;;;;;9.88;4.93;;;;;;;14.41;61.34;100984.53;5090362;28;20036;-26
2022/10/27 01:51:01;;;;;;;13.73;5.00;;;;;;;14.31;62.08;100986.91;5090418;28;20682;-26
2022/10/27 01:53:32;;;;;;;13.88;5.78;;;;;;;14.43;61.47;101003.94;5090518;28;20039;-26
2022/10/27 01:56:03;;;;;;;7.55;4.43;;;;;;;14.52;60.50;101006.31;5090340;28;20085;-31
2022/10/27 01:58:50;;;;;;;9.80;4.18;;;;;;;14.73;60.00;101011.31;5089900;28;20492;-26
2022/10/27 02:01:34;;;;;;;8.98;4.28;;;;;;;14.62;60.62;101010.16;5088746;28;20047;-27
2022/10/27 02:04:20;;;;;;;8.20;4.60;;;;;;;14.36;61.63;101005.84;5088922;28;20078;-25
2022/10/27 02:07:11;;;;;;;10.38;4.05;;;;;;;14.53;59.84;101011.47;5048270;28;20052;-27
2022/10/27 02:09:45;;;;;;;10.20;4.45;;;;;;;14.39;60.33;101007.28;5079026;28;20036;-26
2022/10/27 02:12:41;;;;;;;11.90;4.70;;;;;;;14.51;60.12;101010.06;5090213;28;20135;-25
2022/10/27 02:15:20;;;;;;;9.13;4.68;;;;;;;14.52;59.86;101009.00;5055341;28;20119;-26
2022/10/27 02:17:47;;;;;;;9.18;4.22;;;;;;;14.41;60.03;100999.81;5090149;28;20035;-28
2022/10/27 02:20:21;;;;;;;9.40;5.03;;;;;;;14.53;60.56;101016.84;5071601;28;20495;-25
2022/10/27 02:22:49;;;;;;;8.23;4.30;;;;;;;14.32;60.56;101004.63;5090028;28;20036;-26
2022/10/27 02:25:15;;;;;;;8.40;4.07;;;;;;;14.30;60.40;101009.41;5089784;28;20062;-26
2022/10/27 02:27:46;;;;;;;7.82;4.07;;;;;;;14.18;60.97;101019.22;5089532;28;20060;-26
2022/10/27 02:30:13;;;;;;;8.48;4.30;;;;;;;14.05;60.88;101023.63;5071448;28;20092;-26
2022/10/27 02:32:39;;;;;;;9.02;4.50;;;;;;;14.06;61.09;101036.03;5088224;28;20061;-26
2022/10/27 02:35:07;;;;;;;9.82;4.97;;;;;;;14.02;61.62;101034.81;5089522;28;20024;-25
2022/10/27 02:37:34;;;;;;;8.65;4.50;;;;;;;14.11;61.29;101047.97;5089784;28;20040;-29
2022/10/27 02:39:59;;;;;;;10.30;4.68;;;;;;;13.88;61.72;101038.63;5089499;28;20372;-27
2022/10/27 02:42:25;;;;;;;9.68;5.07;;;;;;;13.77;61.66;101036.63;5088676;28;20139;-27
2022/10/27 02:44:51;;;;;;;9.93;4.30;;;;;;;13.86;61.59;101048.75;5089315;28;20024;-26
2022/10/27 02:47:16;;;;;;;10.23;5.28;;;;;;;13.93;61.46;101041.47;5089408;28;20059;-26
2022/10/27 02:49:43;;;;;;;10.18;5.07;;;;;;;13.65;62.69;101023.94;5089300;28;20103;-25
2022/10/27 02:52:08;;;;;;;10.30;5.10;;;;;;;13.77;61.76;101021.38;5089134;28;20032;-26
2022/10/27 02:54:34;;;;;;;11.60;5.88;;;;;;;13.80;62.05;101020.94;5088871;28;20024;-28
2022/10/27 02:56:59;;;;;;;12.10;5.13;;;;;;;13.62;62.18;101032.38;5089578;28;20032;-27
2022/10/27 02:59:25;;;;;;;10.23;5.03;;;;;;;13.36;63.30;101035.22;5089576;28;20030;-27
2022/10/27 03:01:50;;;;;;;10.88;5.25;;;;;;;13.38;62.94;101033.13;5089010;28;20032;-26
2022/10/27 03:04:16;;;;;;;16.23;6.28;;;;;;;13.52;62.52;101052.66;5088710;28;20097;-26
2022/10/27 03:06:41;;;;;;;12.50;5.28;;;;;;;13.34;63.65;101043.47;5088875;28;20048;-26
2022/10/27 03:09:06;;;;;;;14.93;5.70;;;;;;;13.41;63.19;101043.44;5088829;28;20028;-26
2022/10/27 03:11:32;;;;;;;12.90;5.68;;;;;;;13.73;62.18;101060.38;5088693;28;20035;-26
2022/10/27 03:13:57;;;;;;;11.57;5.95;;;;;;;13.56;62.28;101068.09;5070536;28;20126;-28
2022/10/27 03:16:23;;;;;;;15.10;7.78;;;;;;;13.30;62.78;101052.97;5088896;28;20036;-26
2022/10/27 03:18:48;;;;;;;34.20;9.85;;;;;;;13.27;63.67;101054.19;5070326;28;20036;-28
2022/10/27 03:21:14;;;;;;;15.18;8.38;;;;;;;13.24;64.01;101070.69;5088854;28;20028;-27
2022/10/27 03:23:39;;;;;;;12.82;7.70;;;;;;;12.90;65.47;101062.97;5070178;28;20027;-27
2022/10/27 03:26:05;;;;;;;15.38;7.40;;;;;;;12.57;66.59;101050.47;5088483;28;20541;-25
2022/10/27 03:28:34;;;;;;;17.15;8.15;;;;;;;12.90;65.26;101052.25;5088114;28;20679;-25
2022/10/27 03:31:00;;;;;;;14.88;8.05;;;;;;;13.10;64.92;101085.16;5088697;28;20078;-25
2022/10/27 03:33:26;;;;;;;17.33;8.02;;;;;;;13.02;65.04;101080.84;5088628;28;20024;-26
2022/10/27 03:35:51;;;;;;;16.98;8.07;;;;;;;12.33;67.05;101058.09;5087959;28;20043;-29
2022/10/27 03:38:17;;;;;;;14.88;7.72;;;;;;;12.24;67.80;101086.91;5085957;28;20036;-26
2022/10/27 03:40:42;;;;;;;17.45;9.02;;;;;;;12.14;67.19;101069.63;5088314;28;20032;-26
2022/10/27 03:43:09;;;;;;;24.10;8.95;;;;;;;12.59;65.87;101072.50;5088409;28;20028;-26
2022/10/27 03:45:35;;;;;;;14.55;8.65;;;;;;;12.34;67.44;101091.84;5088194;28;20024;-25
2022/10/27 03:48:02;;;;;;;14.93;8.32;;;;;;;12.46;67.30;101095.56;5088140;28;20473;-25
2022/10/27 03:50:28;;;;;;;18.52;9.23;;;;;;;12.42;68.40;101098.81;5087923;28;20035;-26
2022/10/27 03:52:53;;;;;;;16.00;8.57;;;;;;;12.07;69.05;101074.94;5087350;28;20036;-27
2022/10/27 03:55:19;;;;;;;15.50;8.02;;;;;;;12.24;68.29;101080.72;5087950;28;20035;-25
2022/10/27 03:57:44;;;;;;;13.82;7.55;;;;;;;12.18;68.65;101076.19;5088084;28;20028;-27
2022/10/27 04:00:11;;;;;;;14.50;7.75;;;;;;;12.48;67.76;101094.50;5088180;28;20097;-27
2022/10/27 04:02:36;;;;;;;14.88;7.80;;;;;;;12.23;68.32;101079.88;5069204;28;20059;-25
2022/10/27 04:05:01;;;;;;;22.33;8.73;;;;;;;12.00;69.60;101096.31;5087808;28;20484;-25
2022/10/27 04:07:27;;;;;;;18.27;8.60;;;;;;;12.14;68.78;101091.00;5087487;28;20035;-25
2022/10/27 04:09:52;;;;;;;25.17;9.32;;;;;;;11.58;70.84;101102.75;5087928;28;20039;-25
2022/10/27 04:12:17;;;;;;;16.95;8.23;;;;;;;11.71;70.47;101113.50;5087543;28;20028;-25
2022/10/27 04:14:43;;;;;;;16.30;7.95;;;;;;;12.13;69.00;101098.19;5087657;28;20031;-26
2022/10/27 04:17:08;;;;;;;17.73;8.18;;;;;;;12.21;69.14;101119.38;5087885;28;20028;-25
2022/10/27 04:19:34;;;;;;;14.27;8.63;;;;;;;12.18;68.61;101102.94;5087522;28;20060;-26
2022/10/27 04:21:59;;;;;;;16.45;8.60;;;;;;;12.44;68.05;101124.34;5087845;28;20028;-26
2022/10/27 04:24:24;;;;;;;16.17;8.07;;;;;;;12.50;67.21;101127.22;5085411;28;20024;-29
2022/10/27 04:26:50;;;;;;;17.20;8.93;;;;;;;12.10;69.57;101111.16;5087989;28;20032;-30
2022/10/27 04:29:15;;;;;;;44.88;23.40;;;;;;;12.21;69.26;101108.69;5087410;28;20036;-28
2022/10/27 04:31:41;;;;;;;53.72;29.90;;;;;;;12.27;69.42;101126.59;5087551;28;20020;-27
2022/10/27 04:34:06;;;;;;;47.17;27.02;;;;;;;12.21;70.07;101107.88;5087455;28;20035;-26
2022/10/27 04:36:31;;;;;;;61.92;37.15;;;;;;;12.33;70.16;101127.63;5086924;28;20756;-26
2022/10/27 04:38:57;;;;;;;58.83;34.47;;;;;;;11.95;71.09;101130.03;5085664;28;20040;-26
2022/10/27 04:41:22;;;;;;;56.83;34.00;;;;;;;11.63;72.47;101133.19;5087124;28;20526;-29
2022/10/27 04:43:49;;;;;;;69.43;38.90;;;;;;;12.01;70.85;101119.38;5087326;28;20031;-27
2022/10/27 04:46:15;;;;;;;77.50;43.20;;;;;;;12.36;69.99;101145.97;5087138;28;20032;-28
2022/10/27 04:48:40;;;;;;;71.47;40.13;;;;;;;12.42;69.71;101146.97;5087153;28;20039;-29
2022/10/27 04:51:06;;;;;;;65.50;37.08;;;;;;;12.10;71.06;101153.94;5085775;28;20036;-27
2022/10/27 04:53:31;;;;;;;65.25;37.90;;;;;;;11.54;72.56;101136.22;5087051;28;20035;-25
2022/10/27 04:55:56;;;;;;;44.28;27.38;;;;;;;11.53;73.05;101154.09;5087186;28;20035;-27
2022/10/27 04:58:22;;;;;;;34.53;20.30;;;;;;;11.36;73.46;101150.94;5086969;28;20028;-26
2022/10/27 05:00:47;;;;;;;28.83;16.33;;;;;;;11.33;72.63;101134.47;5087159;28;20437;-26
2022/10/27 05:03:13;;;;;;;35.70;19.90;;;;;;;11.73;71.32;101137.31;5086875;28;20032;-27
2022/10/27 05:05:38;;;;;;;31.58;18.95;;;;;;;11.45;72.62;101135.56;5086724;28;20548;-26
2022/10/27 05:08:04;;;;;;;30.88;17.13;;;;;;;11.47;72.79;101128.19;5068398;28;20031;-27
2022/10/27 05:10:31;;;;;;;36.97;17.17;;;;;;;11.64;72.51;101153.53;5086847;28;20020;-26
2022/10/27 05:12:57;;;;;;;30.27;16.60;;;;;;;12.17;71.10;101160.09;5086992;28;20047;-27
2022/10/27 05:15:23;;;;;;;20.20;12.80;;;;;;;12.37;70.52;101169.00;5087101;28;20056;-25
2022/10/27 05:17:48;;;;;;;19.75;9.77;;;;;;;12.16;71.77;101169.16;5068813;28;20058;-29
2022/10/27 05:20:14;;;;;;;18.30;10.52;;;;;;;12.06;71.77;101132.94;5068593;28;20067;-28
2022/10/27 05:22:40;;;;;;;16.85;9.63;;;;;;;12.74;69.98;101169.44;5086556;28;20148;-26
2022/10/27 05:25:06;;;;;;;23.50;10.30;;;;;;;12.74;68.61;101156.03;5087368;28;20551;-28
2022/10/27 05:27:32;;;;;;;21.48;10.20;;;;;;;12.99;68.34;101169.63;5087043;28;20424;-29
2022/10/27 05:29:58;;;;;;;29.33;11.15;;;;;;;12.48;70.34;101172.09;5086892;28;20035;-26
2022/10/27 05:32:24;;;;;;;21.10;10.68;;;;;;;12.55;70.68;101178.28;5086753;28;20051;-25
2022/10/27 05:34:49;;;;;;;18.20;10.27;;;;;;;12.38;70.61;101173.31;5086696;28;20028;-27
2022/10/27 05:37:15;;;;;;;21.85;10.73;;;;;;;12.52;71.21;101189.38;5086665;28;20020;-26
2022/10/27 05:39:40;;;;;;;25.67;10.45;;;;;;;12.51;70.93;101183.22;5086792;28;20724;-25
2022/10/27 05:42:06;;;;;;;21.42;10.73;;;;;;;12.16;71.73;101174.53;5086638;28;20024;-26
2022/10/27 05:44:31;;;;;;;27.48;12.75;;;;;;;12.04;72.24;101201.81;5086459;28;20036;-28
2022/10/27 05:46:57;;;;;;;22.70;12.70;;;;;;;12.09;71.25;101209.25;5086668;28;20110;-29
2022/10/27 05:49:22;;;;;;;26.10;12.70;;;;;;;11.76;72.13;101209.09;5086534;28;20118;-28
2022/10/27 05:51:49;;;;;;;25.65;12.75;;;;;;;11.61;71.38;101193.19;5086394;28;20103;-26
2022/10/27 05:54:14;;;;;;;32.17;15.20;;;;;;;11.80;71.41;101196.97;5086733;28;20032;-25
2022/10/27 05:56:40;;;;;;;32.58;19.95;;;;;;;11.90;71.54;101191.28;5086348;28;20466;-26
2022/10/27 05:59:05;;;;;;;39.83;22.42;;;;;;;11.95;71.54;101188.84;5086692;28;20039;-26
2022/10/27 06:01:30;;;;;;;38.88;24.27;;;;;;;12.11;70.91;101198.34;5086721;28;20183;-27
2022/10/27 06:03:56;;;;;;;48.33;27.90;;;;;;;12.31;71.14;101225.97;5067883;28;20417;-24
2022/10/27 06:06:21;;;;;;;50.28;29.42;;;;;;;12.92;68.51;101216.19;5086307;28;20605;-27
2022/10/27 06:08:47;;;;;;;61.42;38.88;;;;;;;13.12;68.31;101217.00;5086084;28;20024;-28
2022/10/27 06:11:12;;;;;;;63.22;39.83;;;;;;;13.10;67.88;101234.28;5086392;28;20036;-32
2022/10/27 06:13:37;;;;;;;59.00;36.15;;;;;;;12.78;69.65;101232.22;5086417;28;20554;-26
2022/10/27 06:16:03;;;;;;;49.67;32.42;;;;;;;12.98;69.09;101226.06;5084915;28;20028;-26
2022/10/27 06:18:29;;;;;;;44.22;27.17;;;;;;;13.42;67.64;101232.63;5089618;28;20039;-26
2022/10/27 06:20:54;;;;;;;37.22;24.27;;;;;;;13.55;66.68;101218.41;5088224;28;20032;-25
2022/10/27 06:23:19;;;;;;;32.25;21.67;;;;;;;13.86;66.15;101247.19;5089908;28;20065;-26
2022/10/27 06:25:45;;;;;;;33.20;19.35;;;;;;;13.98;64.87;101237.44;5089799;28;20024;-26
2022/10/27 06:28:10;;;;;;;38.05;21.98;;;;;;;14.29;63.60;101243.88;5089932;28;20035;-25
2022/10/27 06:30:36;;;;;;;37.80;22.98;;;;;;;14.15;63.64;101253.03;5089978;28;20031;-25
2022/10/27 06:33:01;;;;;;;44.65;27.67;;;;;;;14.32;64.14;101250.69;5089568;28;20462;-26
2022/10/27 06:35:27;;;;;;;41.08;26.55;;;;;;;14.31;63.37;101259.78;5089311;28;20036;-25
2022/10/27 06:37:52;;;;;;;43.78;25.63;;;;;;;14.22;63.18;101264.56;5071487;28;20055;-25
2022/10/27 06:40:19;;;;;;;37.50;23.52;;;;;;;14.30;63.14;101261.63;5089597;28;20714;-26
2022/10/27 06:42:49;;;;;;;48.95;26.33;;;;;;;14.30;63.21;101245.53;5089582;28;20031;-26
2022/10/27 06:45:16;;;;;;;36.92;23.88;;;;;;;14.38;64.03;101269.41;5071209;28;20126;-29
2022/10/27 06:47:42;;;;;;;41.67;23.83;;;;;;;14.59;63.28;101259.47;5089140;28;20452;-26
2022/10/27 06:50:08;;;;;;;37.63;21.77;;;;;;;14.45;63.30;101254.13;5070769;28;20568;-27
2022/10/27 06:52:38;;;;;;;35.95;23.08;;;;;;;14.65;63.38;101269.34;5088923;28;20028;-29
2022/10/27 06:55:05;;;;;;;33.75;18.95;;;;;;;14.85;62.48;101261.97;5089432;28;20028;-27
2022/10/27 06:57:38;;;;;;;30.52;17.23;;;;;;;15.09;61.45;101247.94;5089132;28;20032;-25
2022/10/27 07:00:04;;;;;;;27.08;16.77;;;;;;;15.51;59.94;101251.66;5070864;28;20032;-27
2022/10/27 07:02:30;;;;;;;19.05;12.57;;;;;;;15.77;58.71;101249.75;5088500;28;20068;-25
2022/10/27 07:04:55;;;;;;;19.23;10.40;;;;;;;16.06;57.30;101270.53;5088765;28;20059;-26
2022/10/27 07:07:20;;;;;;;19.50;10.77;;;;;;;16.01;57.15;101264.97;5089144;28;20031;-27
2022/10/27 07:09:46;;;;;;;16.92;9.48;;;;;;;16.04;57.11;101267.25;5071103;28;20032;-26
2022/10/27 07:12:11;;;;;;;17.23;9.60;;;;;;;16.14;57.38;101266.72;5089255;28;20480;-26
2022/10/27 07:14:37;;;;;;;14.80;9.02;;;;;;;16.25;56.57;101267.81;5088587;28;20047;-28
2022/10/27 07:17:02;;;;;;;17.67;9.18;;;;;;;16.23;57.16;101272.59;5088695;28;20027;-26
2022/10/27 07:19:28;;;;;;;20.73;9.90;;;;;;;16.19;56.18;101263.34;5089269;28;20039;-27
2022/10/27 07:21:53;;;;;;;34.45;10.52;;;;;;;16.16;56.77;101270.00;5070533;28;20024;-26
2022/10/27 07:24:18;;;;;;;18.88;9.75;;;;;;;16.23;57.11;101272.59;5087131;28;20081;-27
2022/10/27 07:26:44;;;;;;;19.17;9.32;;;;;;;16.24;56.55;101271.53;5088772;28;20103;-28
2022/10/27 07:29:09;;;;;;;20.95;10.23;;;;;;;16.12;57.46;101268.81;5088433;28;20035;-29
2022/10/27 07:31:35;;;;;;;20.95;9.82;;;;;;;16.31;56.33;101260.69;5088465;28;20021;-26
2022/10/27 07:34:00;;;;;;;18.52;10.20;;;;;;;16.38;56.11;101273.00;5088380;28;20101;-27
2022/10/27 07:36:25;;;;;;;14.45;9.20;;;;;;;16.33;55.92;101264.81;5088463;28;20028;-26
2022/10/27 07:38:51;;;;;;;17.98;10.10;;;;;;;16.42;55.51;101268.00;5088466;28;20108;-26
2022/10/27 07:41:16;;;;;;;18.38;9.32;;;;;;;16.63;55.34;101283.66;5088391;28;20566;-28
2022/10/27 07:43:42;;;;;;;16.23;8.65;;;;;;;16.62;55.67;101283.88;5088742;28;20043;-26
2022/10/27 07:46:07;;;;;;;19.35;7.57;;;;;;;16.76;54.88;101277.25;5087935;28;20107;-29
2022/10/27 07:48:33;;;;;;;14.80;7.28;;;;;;;16.85;54.68;101278.56;5088096;28;20036;-26
2022/10/27 07:50:58;;;;;;;14.10;7.65;;;;;;;16.80;54.57;101283.81;5069897;28;20458;-28
2022/10/27 07:53:24;;;;;;;15.90;7.72;;;;;;;16.95;53.60;101298.75;5069973;28;20024;-25
2022/10/27 07:55:51;;;;;;;13.98;6.80;;;;;;;16.74;54.23;101279.34;5088396;28;20044;-29
2022/10/27 07:58:16;;;;;;;9.82;6.32;;;;;;;16.91;54.02;101282.22;5088037;28;20028;-26
2022/10/27 08:00:44;;;;;;;14.23;7.18;;;;;;;17.01;54.39;101287.84;5087948;28;20078;-25
2022/10/27 08:03:18;;;;;;;14.80;7.35;;;;;;;16.98;53.58;101293.72;5069541;28;20123;-28
2022/10/27 08:05:44;;;;;;;15.02;6.85;;;;;;;17.01;54.16;101297.81;5087960;28;20055;-29
2022/10/27 08:08:10;;;;;;;13.75;6.80;;;;;;;17.18;53.60;101298.81;5087679;28;20054;-26
2022/10/27 08:10:37;;;;;;;12.93;6.45;;;;;;;17.12;53.48;101271.94;5087565;28;20063;-26
2022/10/27 08:13:03;;;;;;;11.25;6.45;;;;;;;17.30;52.83;101300.69;5087671;28;20024;-26
2022/10/27 08:15:29;;;;;;;14.50;6.18;;;;;;;17.24;52.88;101292.47;5087599;28;20042;-28
2022/10/27 08:17:56;;;;;;;14.25;6.68;;;;;;;17.24;52.56;101262.81;5069577;28;20028;-25
2022/10/27 08:20:23;;;;;;;10.43;5.72;;;;;;;17.25;52.06;101256.38;5087293;28;20024;-27
2022/10/27 08:23:10;;;;;;;13.18;6.53;;;;;;;17.52;52.49;101288.25;5087749;28;20136;-27
2022/10/27 08:25:36;;;;;;;14.10;7.00;;;;;;;17.52;52.18;101277.47;5087779;28;20032;-26
2022/10/27 08:28:02;;;;;;;9.60;6.13;;;;;;;17.61;51.67;101281.47;5087288;28;20025;-27
2022/10/27 08:30:30;;;;;;;13.20;7.00;;;;;;;17.60;51.30;101257.41;5087306;28;20525;-27
2022/10/27 08:32:57;;;;;;;15.00;6.88;;;;;;;17.77;51.83;101284.47;5087540;28;20035;-27
2022/10/27 08:35:23;;;;;;;14.07;6.38;;;;;;;18.21;50.90;101284.88;5087184;28;20039;-26
2022/10/27 08:37:49;;;;;;;9.90;5.88;;;;;;;18.39;49.61;101282.00;5085644;28;20415;-26
2022/10/27 08:40:15;;;;;;;10.85;6.10;;;;;;;18.35;49.53;101275.44;5084978;28;20484;-27
2022/10/27 08:42:52;;;;;;;14.13;6.43;;;;;;;18.81;48.84;101284.41;5087016;28;20032;-26
2022/10/27 08:45:50;;;;;;;14.85;5.82;;;;;;;18.81;47.96;101281.69;5087372;28;20038;-27
2022/10/27 08:48:22;;;;;;;11.48;5.82;;;;;;;18.54;48.40;101283.34;5081157;28;20086;-28
2022/10/27 08:50:48;;;;;;;10.18;5.72;;;;;;;18.51;50.02;101273.00;5068767;28;20039;-27
2022/10/27 08:53:24;;;;;;;12.10;6.20;;;;;;;18.87;48.65;101288.00;5087700;28;20135;-26
2022/10/27 08:56:00;;;;;;;12.30;5.82;;;;;;;19.02;47.69;101284.72;5068977;28;20044;-27
2022/10/27 08:58:35;;;;;;;11.90;5.80;;;;;;;19.24;48.25;101287.53;5086781;28;20674;-26
2022/10/27 09:01:03;;;;;;;13.13;5.15;;;;;;;19.41;47.19;101287.50;5087049;28;20035;-26
2022/10/27 09:03:47;;;;;;;;;;;;;;;19.41;46.94;101284.78;5087057;28;20099;-29
2022/10/27 09:06:40;;;;;;;11.88;6.43;;;;;;;19.35;48.23;101277.66;5087001;28;19920;-26
2022/10/27 09:09:15;;;;;;;10.55;5.85;;;;;;;19.70;46.76;101269.25;5085377;28;20028;-27
2022/10/27 09:11:44;;;;;;;12.20;7.20;;;;;;;19.81;46.01;101283.78;5086801;28;20059;-27
2022/10/27 09:14:15;;;;;;;16.13;7.70;;;;;;;20.07;45.25;101269.47;5087138;28;20027;-30
2022/10/27 09:16:46;;;;;;;13.02;6.70;;;;;;;20.45;45.95;101275.03;5086993;28;20114;-25
2022/10/27 09:19:22;;;;;;;19.75;7.63;;;;;;;20.07;45.55;101272.19;5068551;28;20032;-26
2022/10/27 09:21:49;;;;;;;11.18;6.50;;;;;;;20.27;45.61;101270.78;5086835;28;20028;-27
2022/10/27 09:24:23;;;;;;;15.13;6.63;;;;;;;20.40;45.27;101270.38;5086754;28;20128;-32
2022/10/27 09:26:48;;;;;;;11.13;6.82;;;;;;;20.71;45.58;101268.00;5086842;28;20558;-28
2022/10/27 09:29:21;;;;;;;13.57;6.20;;;;;;;21.04;45.11;101272.38;5086580;28;20020;-28
2022/10/27 09:32:14;;;;;;;16.95;7.60;;;;;;;21.09;43.58;101268.06;5086885;28;20035;-26
2022/10/27 09:34:47;;;;;;;15.10;7.53;;;;;;;21.04;42.92;101247.13;5086438;28;20032;-27
2022/10/27 09:37:15;;;;;;;11.55;7.35;;;;;;;21.32;44.07;101253.28;5086722;28;20054;-27
2022/10/27 09:39:51;;;;;;;;;;;;;;;21.49;41.84;101259.38;5087310;28;20054;-26
2022/10/27 09:42:17;;;;;;;13.40;7.95;;;;;;;21.74;42.02;101245.13;5067772;28;19908;-27
2022/10/27 09:44:53;;;;;;;14.20;7.95;;;;;;;21.82;42.08;101246.50;5068370;28;20032;-27
2022/10/27 09:47:22;;;;;;;16.08;8.52;;;;;;;21.96;41.53;101225.09;5068171;28;20551;-27
2022/10/27 09:49:48;;;;;;;12.20;6.40;;;;;;;22.05;40.86;101240.63;5086645;28;20040;-27
2022/10/27 09:52:19;;;;;;;19.25;7.13;;;;;;;21.73;42.25;101235.34;5088552;28;20048;-26
2022/10/27 09:54:56;;;;;;;10.77;6.78;;;;;;;21.96;40.61;101212.34;5072432;28;20102;-25
2022/10/27 09:57:30;;;;;;;12.65;6.53;;;;;;;22.13;40.99;101223.00;5090311;28;20028;-27
2022/10/27 10:00:20;;;;;;;13.65;6.70;;;;;;;22.40;40.12;101239.09;5090783;28;20043;-26
2022/10/27 10:03:01;;;;;;;14.77;6.15;;;;;;;22.38;39.72;101235.84;5061955;28;20079;-27
2022/10/27 10:05:32;;;;;;;13.68;6.20;;;;;;;22.73;39.52;101231.50;5090443;28;20389;-29
2022/10/27 10:08:23;;;;;;;16.25;7.10;;;;;;;22.95;38.47;101230.44;5071473;28;20089;-28
2022/10/27 10:11:00;;;;;;;10.05;5.00;;;;;;;23.04;38.38;101236.97;5079823;28;20048;-28
2022/10/27 10:13:28;;;;;;;9.75;4.25;;;;;;;23.27;38.42;101220.06;5090252;28;20028;-27
2022/10/27 10:16:15;;;;;;;10.02;5.05;;;;;;;23.70;37.10;101211.50;5089965;28;20557;-26
2022/10/27 10:18:45;;;;;;;10.68;5.30;;;;;;;23.80;36.33;101206.03;5089848;28;20032;-26
2022/10/27 10:21:13;;;;;;;10.18;5.15;;;;;;;24.23;35.67;101221.84;5090083;28;20500;-27
2022/10/27 10:23:47;;;;;;;10.30;5.05;;;;;;;24.65;35.13;101231.38;5090018;28;20052;-29
2022/10/27 10:26:28;;;;;;;10.70;5.05;;;;;;;24.81;35.08;101230.16;5089700;28;20078;-31
2022/10/27 10:29:15;;;;;;;7.97;4.30;;;;;;;24.65;35.36;101229.47;5071274;28;20050;-27
2022/10/27 10:31:41;;;;;;;;;;;;;;;24.63;35.09;101233.59;5090337;28;20039;-28
2022/10/27 10:34:29;;;;;;;9.15;4.47;;;;;;;24.57;34.95;101221.91;5089831;28;19911;-29
2022/10/27 10:36:54;;;;;;;9.85;4.57;;;;;;;25.00;35.33;101221.25;5089881;28;20034;-27
2022/10/27 10:39:36;;;;;;;9.20;4.35;;;;;;;24.99;34.35;101216.91;5089401;28;20411;-26
2022/10/27 10:42:17;;;;;;;8.18;4.32;;;;;;;24.97;35.12;101222.66;5089566;28;20034;-28
2022/10/27 10:44:44;;;;;;;9.82;4.40;;;;;;;25.12;33.71;101218.97;5089411;28;20042;-27
2022/10/27 10:47:29;;;;;;;11.05;4.32;;;;;;;25.03;33.93;101201.59;5089527;28;20028;-27
2022/10/27 10:49:59;;;;;;;10.30;5.50;;;;;;;25.05;34.43;101204.84;5089437;28;20039;-27
2022/10/27 10:52:36;;;;;;;9.77;5.03;;;;;;;25.23;33.80;101211.50;5089114;28;20028;-27
2022/10/27 10:55:17;;;;;;;9.13;4.43;;;;;;;25.23;33.75;101201.41;5087763;28;20056;-28
2022/10/27 10:57:45;;;;;;;8.43;4.85;;;;;;;25.56;33.94;101212.50;5089697;28;20040;-26
2022/10/27 11:00:18;;;;;;;8.73;4.65;;;;;;;25.79;32.79;101212.75;5088905;28;20526;-27
2022/10/27 11:03:04;;;;;;;9.32;3.47;;;;;;;25.44;32.56;101209.38;5070548;28;20443;-27
2022/10/27 11:05:35;;;;;;;9.02;3.40;;;;;;;25.63;32.02;101201.22;5070584;28;20055;-28
2022/10/27 11:08:02;;;;;;;8.02;3.55;;;;;;;26.17;31.30;101186.25;5088937;28;20028;-34
2022/10/27 11:10:34;;;;;;;8.32;3.85;;;;;;;25.70;32.00;101193.44;5088528;28;20036;-28
2022/10/27 11:13:03;;;;;;;6.32;3.58;;;;;;;26.23;31.39;101193.28;5089145;28;20032;-29
2022/10/27 11:16:00;;;;;;;6.90;3.40;;;;;;;26.30;31.17;101192.91;5088838;28;20466;-27
2022/10/27 11:18:27;;;;;;;7.53;4.40;;;;;;;26.62;31.00;101194.06;5080101;28;20083;-28
2022/10/27 11:20:57;;;;;;;7.67;3.67;;;;;;;26.70;29.97;101196.09;5088868;28;20297;-26
2022/10/27 11:23:35;;;;;;;6.55;3.60;;;;;;;26.74;29.70;101180.72;5070225;28;20554;-27
2022/10/27 11:26:02;;;;;;;5.90;3.30;;;;;;;27.06;29.02;101176.31;5088884;28;20031;-27
2022/10/27 11:28:33;;;;;;;8.30;3.20;;;;;;;27.46;29.07;101173.88;5088319;28;20237;-30
2022/10/27 11:31:03;;;;;;;7.43;3.45;;;;;;;27.85;28.19;101180.75;5088808;28;20047;-27